Main page
METAR-TAF:

METAR-TAF

Airports :

Cape Town, South Africa

Cape Town International Airport

latitude: 33-59S, longitude: 018-36E, elevation: 42 m

Current weather observation

The report was made 1 hour and 3 minutes ago, at 03:00 UTC
Wind 7 kt from the North/Northwest
Temperature 14°C
Humidity 94%
Pressure 1018 hPa
Visibility 10 km or more
Scattered clouds at a height of 3200 ft

METAR: FACT 240300Z 33007KT 9999 SCT032 14/13 Q1018 NOSIG

Time: 06:03 (04:03 UTC)

Forecast

The report was made 1 hour and 33 minutes ago, at 02:30 UTC
Forecast valid from 24 at 00 UTC to 25 at 06 UTC
Wind 5 kt from the Northwest
Visibility 10 km or more
Broken clouds at a height of 3000 ft
From 24 at 0900 UTC
Wind 8 kt from the West/Southwest
Visibility 10 km or more
Few clouds at a height of 3500 ft
Becoming
from 24 at 18 UTC to 24 at 20 UTC
Broken clouds at a height of 2500 ft

TAF: FACT 240230Z 2400/2506 32005KT 9999 BKN030 FM240900 25008KT 9999 FEW035 BECMG 2418/2420 BKN025 TX21/2412Z TN12/2404Z

Weather observations and forecasts of more than 4000 airports (METAR and TAF reports).

The available stations are represented by yellow and red dots on the map.

Hover mouse over dot to see the name of the station.

Then click to see weather observations and forecasts.

To change the map : click on the green buttons with a black cross to zoom in, on the green button with a dash to zoom out, or on the green arrows for adjacent maps.


METAR-TAF: